createdAt,value
2022-07-26T00:00:54.541Z,1.48
2022-07-26T00:01:58.754Z,1.58
2022-07-26T00:03:02.706Z,2.00
2022-07-26T00:04:19.016Z,1.95
2022-07-26T00:05:22.921Z,1.75
2022-07-26T00:06:27.111Z,1.77
2022-07-26T00:07:36.543Z,1.88
2022-07-26T00:08:41.128Z,1.73
2022-07-26T00:09:48.366Z,1.95
2022-07-26T00:10:53.247Z,2.20
2022-07-26T00:11:57.046Z,1.83
2022-07-26T00:13:01.040Z,1.85
2022-07-26T00:14:08.610Z,2.28
2022-07-26T00:15:12.606Z,1.75
2022-07-26T00:16:16.872Z,1.73
2022-07-26T00:17:20.967Z,1.50
2022-07-26T00:18:25.174Z,1.88
2022-07-26T00:19:28.977Z,1.70
2022-07-26T00:20:33.856Z,1.52
2022-07-26T00:21:40.712Z,1.33
2022-07-26T00:22:45.675Z,1.60
2022-07-26T00:23:49.729Z,1.50
2022-07-26T00:24:53.813Z,1.88
2022-07-26T00:25:58.875Z,1.52
2022-07-26T00:27:04.110Z,2.30
2022-07-26T00:28:09.832Z,1.65
2022-07-26T00:29:13.873Z,2.08
2022-07-26T00:30:17.978Z,1.88
2022-07-26T00:31:22.221Z,1.92
2022-07-26T00:32:26.572Z,1.67
2022-07-26T00:33:30.595Z,1.40
2022-07-26T00:34:34.486Z,2.10
2022-07-26T00:35:38.598Z,1.88
2022-07-26T00:36:44.270Z,1.58
2022-07-26T00:37:48.425Z,1.67
2022-07-26T00:38:52.304Z,1.80
2022-07-26T00:39:56.150Z,1.80
2022-07-26T00:41:00.320Z,1.85
2022-07-26T00:42:04.348Z,1.63
2022-07-26T00:43:08.455Z,2.17
2022-07-26T00:44:12.517Z,1.75
2022-07-26T00:45:18.075Z,2.50
2022-07-26T00:46:21.894Z,1.45
2022-07-26T00:47:25.943Z,1.67
2022-07-26T00:48:29.933Z,1.38
2022-07-26T00:49:34.164Z,1.77
2022-07-26T00:50:38.713Z,1.40
2022-07-26T00:51:46.646Z,2.10
2022-07-26T00:52:51.924Z,1.70
2022-07-26T00:53:55.900Z,2.17
2022-07-26T00:54:59.993Z,2.13
2022-07-26T00:56:03.881Z,1.52
2022-07-26T00:57:07.814Z,1.98
2022-07-26T00:58:13.733Z,1.98
2022-07-26T00:59:17.724Z,1.50
2022-07-26T01:00:28.730Z,2.45
2022-07-26T01:01:32.881Z,1.85
2022-07-26T01:02:36.861Z,2.05
2022-07-26T01:03:41.941Z,2.00
2022-07-26T01:04:46.914Z,1.92
2022-07-26T01:05:51.786Z,1.60
2022-07-26T01:06:56.357Z,2.20
2022-07-26T01:08:00.607Z,1.88
2022-07-26T01:09:05.708Z,1.50
2022-07-26T01:10:15.574Z,1.67
2022-07-26T01:11:20.182Z,1.70
2022-07-26T01:12:24.828Z,1.50
2022-07-26T01:13:33.252Z,1.58
2022-07-26T01:14:42.146Z,1.75
2022-07-26T01:15:46.168Z,1.98
2022-07-26T01:16:52.142Z,2.15
2022-07-26T01:17:56.031Z,1.70
2022-07-26T01:19:00.302Z,1.63
2022-07-26T01:20:08.087Z,1.90
2022-07-26T01:21:13.744Z,2.10
2022-07-26T01:22:18.221Z,1.40
2022-07-26T01:23:22.193Z,1.60
2022-07-26T01:24:26.214Z,1.67
2022-07-26T01:25:43.214Z,2.20
2022-07-26T01:26:49.838Z,1.92
2022-07-26T01:27:55.259Z,1.98
2022-07-26T01:28:59.896Z,1.90
2022-07-26T01:30:04.415Z,2.15
2022-07-26T01:31:09.140Z,2.10
2022-07-26T01:32:14.876Z,2.05
2022-07-26T01:33:18.974Z,1.92
2022-07-26T01:34:23.318Z,1.60
2022-07-26T01:35:29.179Z,1.80
2022-07-26T01:36:34.153Z,1.80
2022-07-26T01:37:38.376Z,1.55
2022-07-26T01:38:43.216Z,1.50
2022-07-26T01:39:46.966Z,1.88
2022-07-26T01:40:50.841Z,1.60
2022-07-26T01:41:56.960Z,2.15
2022-07-26T01:43:00.732Z,1.90
2022-07-26T01:44:05.379Z,1.85
2022-07-26T01:45:11.999Z,1.55
2022-07-26T01:46:16.043Z,1.73
2022-07-26T01:47:20.134Z,1.73
2022-07-26T01:48:24.082Z,2.17
2022-07-26T01:49:27.961Z,1.38
2022-07-26T01:50:31.922Z,1.38
2022-07-26T01:51:36.322Z,1.73
2022-07-26T01:52:40.156Z,1.85
2022-07-26T01:53:46.089Z,2.13
2022-07-26T01:54:50.030Z,2.08
2022-07-26T01:55:54.213Z,2.22
2022-07-26T01:56:58.135Z,1.83
2022-07-26T01:58:02.158Z,1.60
2022-07-26T01:59:06.040Z,1.40
2022-07-26T02:00:11.033Z,1.73
2022-07-26T02:01:15.042Z,1.60
2022-07-26T02:02:19.116Z,2.20
2022-07-26T02:03:23.106Z,1.70
2022-07-26T02:04:45.552Z,1.30
2022-07-26T02:05:49.318Z,1.30
2022-07-26T02:06:53.158Z,2.72
2022-07-26T02:07:58.671Z,2.15
2022-07-26T02:09:03.834Z,1.65
2022-07-26T02:10:14.506Z,1.80
2022-07-26T02:11:18.718Z,1.65
2022-07-26T02:12:22.744Z,1.60
2022-07-26T02:13:31.433Z,2.17
2022-07-26T02:14:35.696Z,1.73
2022-07-26T02:15:39.717Z,1.80
2022-07-26T02:16:43.961Z,1.77
2022-07-26T02:17:48.232Z,1.42
2022-07-26T02:18:51.997Z,1.67
2022-07-26T02:19:55.832Z,1.65
2022-07-26T02:21:02.644Z,1.48
2022-07-26T02:22:06.632Z,1.73
2022-07-26T02:23:10.521Z,2.35
2022-07-26T02:24:14.216Z,1.77
2022-07-26T02:25:18.051Z,1.85
2022-07-26T02:26:23.141Z,1.55
2022-07-26T02:27:27.957Z,1.60
2022-07-26T02:28:31.837Z,2.05
2022-07-26T02:29:36.719Z,2.15
2022-07-26T02:30:41.711Z,1.35
2022-07-26T02:31:48.265Z,1.75
2022-07-26T02:32:52.939Z,2.00
2022-07-26T02:33:57.059Z,1.85
2022-07-26T02:35:00.988Z,1.45
2022-07-26T02:36:07.024Z,1.77
2022-07-26T02:37:11.346Z,1.77
2022-07-26T02:38:17.113Z,2.28
2022-07-26T02:39:27.726Z,2.08
2022-07-26T02:40:32.755Z,2.60
2022-07-26T02:41:37.357Z,2.33
2022-07-26T02:42:41.133Z,1.48
2022-07-26T02:43:45.029Z,2.00
2022-07-26T02:44:48.862Z,2.13
2022-07-26T02:46:01.073Z,1.80
2022-07-26T02:47:06.080Z,1.80
2022-07-26T02:48:09.884Z,1.65
2022-07-26T02:49:13.727Z,1.95
2022-07-26T02:50:24.796Z,1.80
2022-07-26T02:51:29.035Z,1.92
2022-07-26T02:52:33.046Z,1.77
2022-07-26T02:53:36.820Z,1.48
2022-07-26T02:54:40.616Z,1.80
2022-07-26T02:55:44.235Z,1.65
2022-07-26T02:56:47.907Z,1.63
2022-07-26T02:57:52.157Z,1.90
2022-07-26T02:58:55.892Z,1.95
2022-07-26T02:59:59.555Z,2.33
2022-07-26T03:01:04.208Z,2.05
2022-07-26T03:02:07.914Z,1.92
2022-07-26T03:03:14.365Z,2.15
2022-07-26T03:04:18.433Z,1.77
2022-07-26T03:05:23.018Z,1.77
2022-07-26T03:06:28.782Z,1.70
2022-07-26T03:07:33.973Z,1.92
2022-07-26T03:08:37.714Z,1.55
2022-07-26T03:09:41.452Z,1.90
2022-07-26T03:10:45.397Z,1.75
2022-07-26T03:11:49.203Z,2.13
2022-07-26T03:12:53.031Z,1.70
2022-07-26T03:13:56.944Z,1.50
2022-07-26T03:15:00.852Z,1.75
2022-07-26T03:16:04.947Z,1.80
2022-07-26T03:17:08.895Z,1.65
2022-07-26T03:18:13.514Z,2.03
2022-07-26T03:19:17.900Z,2.17
2022-07-26T03:20:21.756Z,2.25
2022-07-26T03:21:25.702Z,1.60
2022-07-26T03:22:29.682Z,1.65
2022-07-26T03:23:35.127Z,1.50
2022-07-26T03:24:39.180Z,1.58
2022-07-26T03:25:44.236Z,1.42
2022-07-26T03:26:48.222Z,1.80
2022-07-26T03:27:57.161Z,1.73
2022-07-26T03:29:01.751Z,1.85
2022-07-26T03:30:07.014Z,1.80
2022-07-26T03:31:14.945Z,2.33
2022-07-26T03:32:18.748Z,1.63
2022-07-26T03:33:22.585Z,1.67
2022-07-26T03:34:27.113Z,1.55
2022-07-26T03:35:30.972Z,2.28
2022-07-26T03:36:43.502Z,2.45
2022-07-26T03:37:47.601Z,1.70
2022-07-26T03:38:51.598Z,2.00
2022-07-26T03:39:56.230Z,1.27
2022-07-26T03:41:00.450Z,1.52
2022-07-26T03:42:05.372Z,1.90
2022-07-26T03:43:09.438Z,1.65
2022-07-26T03:44:13.191Z,1.63
2022-07-26T03:45:17.588Z,1.40
2022-07-26T03:46:21.435Z,1.90
2022-07-26T03:47:25.275Z,1.77
2022-07-26T03:48:30.632Z,1.95
2022-07-26T03:49:35.099Z,1.88
2022-07-26T03:50:38.946Z,1.83
2022-07-26T03:51:43.186Z,2.05
2022-07-26T03:52:46.965Z,2.60
2022-07-26T03:53:51.392Z,2.10
2022-07-26T03:54:55.209Z,2.00
2022-07-26T03:56:17.436Z,2.33
2022-07-26T03:57:21.220Z,2.00
2022-07-26T03:58:25.049Z,1.95
2022-07-26T03:59:28.880Z,1.55
2022-07-26T04:00:32.930Z,1.90
2022-07-26T04:01:42.751Z,1.60
2022-07-26T04:02:48.890Z,2.22
2022-07-26T04:03:52.783Z,1.70
2022-07-26T04:04:57.148Z,2.00
2022-07-26T04:06:01.070Z,1.40
2022-07-26T04:07:05.138Z,1.98
2022-07-26T04:08:09.171Z,2.00
2022-07-26T04:09:13.658Z,1.90
2022-07-26T04:10:18.375Z,1.75
2022-07-26T04:11:22.669Z,2.30
2022-07-26T04:12:30.431Z,2.17
2022-07-26T04:13:35.657Z,1.80
2022-07-26T04:14:42.701Z,1.65
2022-07-26T04:15:47.133Z,1.98
2022-07-26T04:16:51.101Z,1.92
2022-07-26T04:17:54.977Z,1.70
2022-07-26T04:18:59.321Z,1.90
2022-07-26T04:20:03.273Z,2.58
2022-07-26T04:21:07.204Z,1.80
2022-07-26T04:22:10.951Z,1.83
2022-07-26T04:23:14.732Z,1.63
2022-07-26T04:24:18.442Z,2.00
2022-07-26T04:25:22.480Z,1.65
2022-07-26T04:26:26.810Z,2.13
2022-07-26T04:27:31.138Z,1.98
2022-07-26T04:28:34.907Z,2.15
2022-07-26T04:29:38.547Z,1.75
2022-07-26T04:30:42.485Z,1.95
2022-07-26T04:31:46.562Z,1.80
2022-07-26T04:32:50.364Z,2.10
2022-07-26T04:33:54.446Z,2.03
2022-07-26T04:34:58.309Z,2.00
2022-07-26T04:36:03.482Z,2.10
2022-07-26T04:37:07.249Z,1.75
2022-07-26T04:38:11.073Z,2.03
2022-07-26T04:39:14.835Z,2.58
2022-07-26T04:40:21.698Z,2.35
2022-07-26T04:41:28.073Z,2.25
2022-07-26T04:42:31.947Z,2.75
2022-07-26T04:43:35.954Z,2.25
2022-07-26T04:44:39.759Z,2.50
2022-07-26T04:45:48.890Z,2.53
2022-07-26T04:46:53.381Z,1.90
2022-07-26T04:47:58.834Z,2.80
2022-07-26T04:49:02.745Z,2.33
2022-07-26T04:50:07.384Z,2.65
2022-07-26T04:51:11.333Z,1.67
2022-07-26T04:52:15.121Z,2.03
2022-07-26T04:53:19.231Z,2.55
2022-07-26T04:54:23.115Z,2.50
2022-07-26T04:55:26.825Z,2.70
2022-07-26T04:56:30.820Z,2.60
2022-07-26T04:57:34.830Z,2.38
2022-07-26T04:58:40.047Z,3.13
2022-07-26T04:59:43.788Z,2.58
2022-07-26T05:02:15.396Z,2.72
2022-07-26T05:03:19.677Z,2.42
2022-07-26T05:04:23.794Z,2.72
2022-07-26T05:05:31.580Z,2.67
2022-07-26T05:06:35.390Z,2.50
2022-07-26T05:07:47.842Z,2.15
2022-07-26T05:08:51.572Z,2.17
2022-07-26T05:09:55.376Z,2.80
2022-07-26T05:10:59.182Z,2.80
2022-07-26T05:12:03.543Z,2.42
2022-07-26T05:13:07.969Z,2.67
2022-07-26T05:14:11.955Z,2.42
2022-07-26T05:15:17.064Z,2.45
2022-07-26T05:16:20.971Z,2.05
2022-07-26T05:17:27.027Z,2.40
2022-07-26T05:18:43.888Z,2.55
2022-07-26T05:19:54.458Z,2.50
2022-07-26T05:20:58.618Z,2.17
2022-07-26T05:22:02.404Z,2.88
2022-07-26T05:23:06.776Z,2.03
2022-07-26T05:24:11.292Z,2.38
2022-07-26T05:25:15.453Z,2.28
2022-07-26T05:26:19.195Z,2.55
2022-07-26T05:27:22.985Z,2.25
2022-07-26T05:28:26.857Z,2.53
2022-07-26T05:29:32.489Z,2.15
2022-07-26T05:30:36.421Z,1.95
2022-07-26T05:31:40.624Z,2.10
2022-07-26T05:32:44.875Z,2.40
2022-07-26T05:33:48.775Z,2.53
2022-07-26T05:34:52.640Z,2.47
2022-07-26T05:35:56.376Z,2.03
2022-07-26T05:37:00.100Z,1.65
2022-07-26T05:38:04.093Z,2.95
2022-07-26T05:39:11.619Z,2.40
2022-07-26T05:40:17.972Z,2.35
2022-07-26T05:41:22.140Z,2.80
2022-07-26T05:42:26.973Z,2.92
2022-07-26T05:43:41.040Z,2.45
2022-07-26T05:44:46.135Z,2.42
2022-07-26T05:45:50.195Z,2.50
2022-07-26T05:46:54.094Z,2.95
2022-07-26T05:47:58.005Z,2.60
2022-07-26T05:49:02.503Z,2.80
2022-07-26T05:50:07.942Z,2.33
2022-07-26T05:51:12.299Z,2.58
2022-07-26T05:52:16.797Z,2.65
2022-07-26T05:53:20.718Z,2.40
2022-07-26T05:54:24.408Z,2.55
2022-07-26T05:55:28.419Z,2.28
2022-07-26T05:56:32.157Z,2.67
2022-07-26T05:57:35.990Z,2.08
2022-07-26T05:58:39.946Z,2.25
2022-07-26T05:59:43.642Z,2.05
2022-07-26T06:00:48.685Z,2.05
2022-07-26T06:01:56.531Z,2.13
2022-07-26T06:03:00.525Z,2.20
2022-07-26T06:04:04.716Z,2.40
2022-07-26T06:05:09.357Z,2.60
2022-07-26T06:06:13.196Z,2.25
2022-07-26T06:07:17.073Z,1.83
2022-07-26T06:08:21.995Z,3.00
2022-07-26T06:09:27.152Z,4.72
2022-07-26T06:10:30.929Z,3.13
2022-07-26T06:11:34.697Z,3.63
2022-07-26T06:12:38.530Z,2.72
2022-07-26T06:13:42.534Z,2.55
2022-07-26T06:14:46.442Z,2.80
2022-07-26T06:15:50.961Z,2.53
2022-07-26T06:16:55.780Z,2.60
2022-07-26T06:17:59.738Z,3.00
2022-07-26T06:19:03.659Z,2.28
2022-07-26T06:20:08.179Z,2.58
2022-07-26T06:21:12.978Z,2.58
2022-07-26T06:22:16.843Z,2.97
2022-07-26T06:23:34.046Z,3.03
2022-07-26T06:24:38.672Z,2.35
2022-07-26T06:25:42.468Z,2.13
2022-07-26T06:26:46.852Z,2.40
2022-07-26T06:27:50.876Z,2.50
2022-07-26T06:28:54.828Z,2.28
2022-07-26T06:29:58.708Z,2.50
2022-07-26T06:31:02.428Z,2.70
2022-07-26T06:32:07.034Z,2.40
2022-07-26T06:33:11.639Z,2.63
2022-07-26T06:34:17.056Z,2.42
2022-07-26T06:35:21.041Z,2.90
2022-07-26T06:36:28.668Z,1.95
2022-07-26T06:37:38.374Z,2.85
2022-07-26T06:38:42.148Z,2.20
2022-07-26T06:39:46.489Z,2.17
2022-07-26T06:40:50.462Z,1.77
2022-07-26T06:41:54.247Z,3.53
2022-07-26T06:43:02.601Z,1.70
2022-07-26T06:44:08.424Z,1.92
2022-07-26T06:45:12.757Z,1.65
2022-07-26T06:46:17.443Z,2.22
2022-07-26T06:47:21.470Z,1.70
2022-07-26T06:48:25.223Z,2.08
2022-07-26T06:49:29.186Z,2.47
2022-07-26T06:50:33.417Z,1.90
2022-07-26T06:51:37.529Z,2.03
2022-07-26T06:52:41.291Z,1.88
2022-07-26T06:53:51.626Z,2.22
2022-07-26T06:54:55.410Z,1.95
2022-07-26T06:55:59.695Z,2.08
2022-07-26T06:57:03.546Z,2.08
2022-07-26T06:58:07.619Z,2.15
2022-07-26T06:59:11.597Z,1.90
2022-07-26T07:00:16.691Z,1.88
2022-07-26T07:01:55.599Z,2.00
2022-07-26T07:02:44.491Z,2.25
2022-07-26T07:03:48.521Z,2.50
2022-07-26T07:04:52.571Z,2.13
2022-07-26T07:05:56.776Z,2.00
2022-07-26T07:07:06.509Z,2.40
2022-07-26T07:08:11.563Z,1.90
2022-07-26T07:09:15.362Z,2.17
2022-07-26T07:10:19.807Z,2.60
2022-07-26T07:11:27.603Z,2.20
2022-07-26T07:12:32.869Z,2.90
2022-07-26T07:13:36.676Z,2.53
2022-07-26T07:14:40.603Z,2.08
2022-07-26T07:15:44.650Z,2.13
2022-07-26T07:16:48.516Z,3.25
2022-07-26T07:17:52.560Z,3.58
2022-07-26T07:18:56.371Z,2.90
2022-07-26T07:20:00.696Z,2.72
2022-07-26T07:21:04.885Z,3.22
2022-07-26T07:22:12.498Z,2.55
2022-07-26T07:23:16.644Z,2.78
2022-07-26T07:24:20.673Z,2.47
2022-07-26T07:25:30.513Z,2.58
2022-07-26T07:26:34.720Z,2.13
2022-07-26T07:27:41.601Z,2.38
2022-07-26T07:28:46.175Z,2.88
2022-07-26T07:29:52.722Z,3.38
2022-07-26T07:30:56.811Z,2.72
2022-07-26T07:32:03.390Z,2.70
2022-07-26T07:33:09.601Z,2.60
2022-07-26T07:34:26.982Z,3.42
2022-07-26T07:35:31.937Z,2.50
2022-07-26T07:36:36.029Z,2.85
2022-07-26T07:37:53.444Z,2.78
2022-07-26T07:38:59.191Z,2.83
2022-07-26T07:40:11.581Z,2.50
2022-07-26T07:41:15.645Z,3.03
2022-07-26T07:42:21.093Z,2.67
2022-07-26T07:43:24.891Z,3.53
2022-07-26T07:44:30.781Z,3.13
2022-07-26T07:45:35.342Z,2.53
2022-07-26T07:46:39.350Z,2.85
2022-07-26T07:47:43.966Z,2.30
2022-07-26T07:48:48.277Z,2.80
2022-07-26T07:49:52.461Z,3.47
2022-07-26T07:50:56.783Z,3.75
2022-07-26T07:52:01.414Z,3.30
2022-07-26T07:53:07.371Z,3.05
2022-07-26T07:54:11.122Z,2.97
2022-07-26T07:55:41.099Z,2.70
2022-07-26T07:56:38.896Z,2.38
2022-07-26T07:57:43.070Z,2.60
2022-07-26T07:58:47.703Z,3.15
2022-07-26T07:59:52.565Z,3.33
2022-07-26T08:00:57.468Z,2.85
2022-07-26T08:02:02.310Z,2.63
2022-07-26T08:03:06.139Z,2.70
2022-07-26T08:04:10.373Z,3.05
2022-07-26T08:05:15.619Z,3.05
2022-07-26T08:06:20.051Z,3.30
2022-07-26T08:07:24.065Z,2.65
2022-07-26T08:08:38.387Z,3.15
2022-07-26T08:09:43.025Z,2.67
2022-07-26T08:10:51.953Z,3.17
2022-07-26T08:11:56.943Z,2.97
2022-07-26T08:13:00.877Z,3.30
2022-07-26T08:14:05.437Z,3.25
2022-07-26T08:15:10.890Z,2.92
2022-07-26T08:16:15.154Z,2.53
2022-07-26T08:17:19.146Z,2.75
2022-07-26T08:18:26.683Z,3.22
2022-07-26T08:19:41.869Z,3.00
2022-07-26T08:20:46.637Z,3.08
2022-07-26T08:21:50.551Z,4.00
2022-07-26T08:22:56.615Z,3.13
2022-07-26T08:24:00.491Z,3.40
2022-07-26T08:25:05.469Z,2.67
2022-07-26T08:26:09.611Z,2.88
2022-07-26T08:27:14.857Z,3.30
2022-07-26T08:28:45.088Z,2.83
2022-07-26T08:29:42.546Z,2.95
2022-07-26T08:30:46.304Z,2.53
2022-07-26T08:31:50.987Z,3.30
2022-07-26T08:32:55.085Z,3.45
2022-07-26T08:33:59.079Z,3.00
2022-07-26T08:35:17.782Z,3.55
2022-07-26T08:36:26.187Z,2.75
2022-07-26T08:37:34.936Z,3.33
2022-07-26T08:38:38.700Z,3.28
2022-07-26T08:39:42.568Z,2.80
2022-07-26T08:40:46.424Z,3.50
2022-07-26T08:41:50.392Z,3.45
2022-07-26T08:42:56.947Z,3.38
2022-07-26T08:44:09.858Z,3.40
2022-07-26T08:45:14.578Z,3.70
2022-07-26T08:46:24.484Z,2.60
2022-07-26T08:47:42.824Z,3.70
2022-07-26T08:48:53.954Z,3.50
2022-07-26T08:49:57.922Z,3.72
2022-07-26T08:51:11.248Z,3.42
2022-07-26T08:52:16.193Z,3.90
2022-07-26T08:53:21.090Z,4.38
2022-07-26T08:54:27.395Z,3.22
2022-07-26T08:55:50.318Z,2.90
2022-07-26T08:56:55.694Z,3.72
2022-07-26T08:58:02.070Z,3.80
2022-07-26T08:59:19.395Z,4.10
2022-07-26T09:00:30.273Z,3.42
2022-07-26T09:01:34.199Z,3.33
2022-07-26T09:02:42.164Z,3.97
2022-07-26T09:03:46.514Z,3.85
2022-07-26T09:04:50.426Z,4.00
2022-07-26T09:05:54.768Z,3.92
2022-07-26T09:07:11.332Z,3.60
2022-07-26T09:08:29.924Z,4.60
2022-07-26T09:09:57.581Z,4.20
2022-07-26T09:11:03.018Z,3.53
2022-07-26T09:12:19.907Z,4.93
2022-07-26T09:13:24.163Z,3.38
2022-07-26T09:14:38.428Z,3.30
2022-07-26T09:15:43.233Z,4.32
2022-07-26T09:17:00.780Z,3.97
2022-07-26T09:18:04.746Z,3.90
2022-07-26T09:19:22.927Z,4.70
2022-07-26T09:20:31.260Z,4.28
2022-07-26T09:21:36.674Z,4.38
2022-07-26T09:23:02.285Z,4.57
2022-07-26T09:24:06.841Z,3.72
2022-07-26T09:25:23.695Z,4.47
2022-07-26T09:26:28.441Z,4.00
2022-07-26T09:27:37.484Z,4.57
2022-07-26T09:28:45.089Z,4.18
2022-07-26T09:29:55.375Z,4.53
2022-07-26T09:31:06.530Z,4.30
2022-07-26T09:32:21.738Z,4.93
2022-07-26T09:33:26.727Z,4.13
2022-07-26T09:34:30.762Z,4.07
2022-07-26T09:35:49.973Z,3.70
2022-07-26T09:36:56.166Z,4.53
2022-07-26T09:38:01.847Z,4.50
2022-07-26T09:39:05.881Z,4.72
2022-07-26T09:40:16.060Z,4.13
2022-07-26T09:41:32.293Z,4.07
2022-07-26T09:42:36.993Z,4.53
2022-07-26T09:43:41.032Z,4.53
2022-07-26T09:44:47.851Z,4.38
2022-07-26T09:46:07.539Z,4.13
2022-07-26T09:47:11.709Z,4.13
2022-07-26T09:48:36.541Z,5.07
2022-07-26T09:49:50.251Z,4.00
2022-07-26T09:50:54.287Z,4.40
2022-07-26T09:51:58.112Z,4.15
2022-07-26T09:53:13.427Z,5.28
2022-07-26T09:54:29.467Z,4.18
2022-07-26T09:55:46.700Z,4.85
2022-07-26T09:56:53.240Z,4.55
2022-07-26T09:58:00.013Z,4.28
2022-07-26T09:59:05.336Z,4.45
2022-07-26T10:00:10.132Z,4.32
2022-07-26T10:01:13.931Z,4.47
2022-07-26T10:02:17.835Z,5.10
2022-07-26T10:03:21.978Z,4.43
2022-07-26T10:04:26.969Z,3.90
2022-07-26T10:05:33.063Z,4.80
2022-07-26T10:06:36.860Z,3.92
2022-07-26T10:07:41.062Z,4.28
2022-07-26T10:08:45.343Z,4.50
2022-07-26T10:10:20.449Z,3.95
2022-07-26T10:11:29.321Z,3.33
2022-07-26T10:12:35.171Z,4.00
2022-07-26T10:13:39.776Z,3.97
2022-07-26T10:14:51.509Z,4.25
2022-07-26T10:15:56.935Z,4.20
2022-07-26T10:17:30.812Z,4.22
2022-07-26T10:18:38.429Z,3.88
2022-07-26T10:19:45.299Z,4.45
2022-07-26T10:20:52.998Z,4.18
2022-07-26T10:22:25.316Z,4.18
2022-07-26T10:23:47.405Z,4.13
2022-07-26T10:24:58.284Z,4.10
2022-07-26T10:26:04.704Z,3.95
2022-07-26T10:27:09.586Z,4.22
2022-07-26T10:28:26.941Z,4.68
2022-07-26T10:29:30.864Z,4.65
2022-07-26T10:30:35.353Z,3.78
2022-07-26T10:31:39.595Z,4.00
2022-07-26T10:33:03.065Z,4.70
2022-07-26T10:34:07.594Z,4.63
2022-07-26T10:35:36.562Z,4.05
2022-07-26T10:36:40.704Z,4.32
2022-07-26T10:38:02.794Z,4.38
2022-07-26T10:39:16.376Z,4.22
2022-07-26T10:40:22.850Z,4.22
2022-07-26T10:42:08.110Z,3.80
2022-07-26T10:44:45.417Z,4.40
2022-07-26T10:46:10.617Z,3.67
2022-07-26T10:47:18.988Z,3.70
2022-07-26T10:48:24.851Z,5.75
2022-07-26T10:49:37.913Z,4.75
2022-07-26T10:50:45.134Z,4.90
2022-07-26T10:52:12.920Z,4.95
2022-07-26T10:53:26.620Z,4.35
2022-07-26T10:54:30.599Z,4.70
2022-07-26T10:55:53.868Z,4.95
2022-07-26T10:56:57.553Z,5.15
2022-07-26T10:58:01.329Z,5.03
2022-07-26T10:59:06.713Z,4.97
2022-07-26T11:00:25.827Z,5.30
2022-07-26T11:01:37.712Z,5.05
2022-07-26T11:02:44.075Z,4.97
2022-07-26T11:03:48.117Z,5.65
2022-07-26T11:05:15.722Z,4.72
2022-07-26T11:06:20.334Z,4.60
2022-07-26T11:07:24.161Z,4.40
2022-07-26T11:08:30.927Z,4.05
2022-07-26T11:09:35.802Z,4.60
2022-07-26T11:10:46.166Z,4.68
2022-07-26T11:11:52.676Z,4.00
2022-07-26T11:13:21.422Z,4.13
2022-07-26T11:14:26.970Z,4.78
2022-07-26T11:15:31.724Z,5.18
2022-07-26T11:16:49.003Z,4.63
2022-07-26T11:18:05.438Z,4.68
2022-07-26T11:19:26.179Z,4.15
2022-07-26T11:20:30.188Z,3.97
2022-07-26T11:21:34.163Z,3.83
2022-07-26T11:22:38.478Z,3.60
2022-07-26T11:23:48.365Z,3.47
2022-07-26T11:24:52.321Z,4.10
2022-07-26T11:26:14.047Z,4.07
2022-07-26T11:27:17.818Z,3.80
2022-07-26T11:28:21.549Z,4.32
2022-07-26T11:29:41.203Z,3.83
2022-07-26T11:31:02.180Z,3.72
2022-07-26T11:32:22.010Z,4.30
2022-07-26T11:33:45.641Z,4.15
2022-07-26T11:35:02.723Z,3.80
2022-07-26T11:36:08.343Z,3.78
2022-07-26T11:37:12.565Z,3.78
2022-07-26T11:38:16.342Z,3.78
2022-07-26T11:39:26.253Z,3.88
2022-07-26T11:40:49.037Z,3.58
2022-07-26T11:41:59.945Z,3.80
2022-07-26T11:43:04.021Z,3.25
2022-07-26T11:44:15.042Z,3.80
2022-07-26T11:45:19.694Z,4.55
2022-07-26T11:46:33.869Z,4.82
2022-07-26T11:47:37.908Z,4.20
2022-07-26T11:48:53.565Z,3.70
2022-07-26T11:50:14.306Z,4.07
2022-07-26T11:51:24.999Z,3.55
2022-07-26T11:52:32.417Z,3.17
2022-07-26T11:53:38.696Z,3.55
2022-07-26T11:54:54.779Z,3.85
2022-07-26T11:56:21.626Z,3.53
2022-07-26T11:57:32.147Z,3.67
2022-07-26T11:58:37.271Z,3.92
2022-07-26T11:59:42.028Z,3.42
2022-07-26T12:00:46.159Z,3.38
2022-07-26T12:01:50.720Z,4.68
2022-07-26T12:02:56.153Z,3.80
2022-07-26T12:04:00.327Z,3.65
2022-07-26T12:05:22.110Z,3.60
2022-07-26T12:06:29.095Z,3.63
2022-07-26T12:07:32.821Z,4.40
2022-07-26T12:08:42.260Z,2.60
2022-07-26T12:10:05.103Z,3.58
2022-07-26T12:11:10.119Z,3.17
2022-07-26T12:12:33.065Z,3.25
2022-07-26T12:14:01.898Z,2.92
2022-07-26T12:15:07.838Z,3.17
2022-07-26T12:16:11.861Z,2.97
2022-07-26T12:17:18.261Z,3.08
2022-07-26T12:18:34.236Z,3.58
2022-07-26T12:19:38.470Z,3.78
2022-07-26T12:21:07.136Z,3.05
2022-07-26T12:22:16.824Z,3.95
2022-07-26T12:23:20.655Z,2.85
2022-07-26T12:24:55.994Z,3.38
2022-07-26T12:26:25.736Z,3.22
2022-07-26T12:27:34.104Z,3.30
2022-07-26T12:28:41.839Z,3.28
2022-07-26T12:30:14.827Z,3.13
2022-07-26T12:31:34.375Z,3.33
2022-07-26T12:32:44.890Z,3.22
2022-07-26T12:33:50.326Z,3.25
2022-07-26T12:35:11.724Z,2.95
2022-07-26T12:36:28.017Z,2.92
2022-07-26T12:37:40.679Z,2.72
2022-07-26T12:38:44.857Z,2.40
2022-07-26T12:40:13.962Z,2.90
2022-07-26T12:41:39.373Z,2.78
2022-07-26T12:43:02.464Z,3.30
2022-07-26T12:44:11.958Z,3.25
2022-07-26T12:45:23.222Z,3.47
2022-07-26T12:46:27.117Z,2.97
2022-07-26T12:47:31.093Z,3.08
2022-07-26T12:48:37.147Z,3.10
2022-07-26T12:49:42.883Z,2.50
2022-07-26T12:50:49.681Z,3.38
2022-07-26T12:51:54.183Z,3.28
2022-07-26T12:53:09.349Z,2.55
2022-07-26T12:54:16.753Z,2.95
2022-07-26T12:55:22.205Z,3.25
2022-07-26T12:56:26.164Z,2.92
2022-07-26T12:57:30.035Z,3.22
2022-07-26T12:58:33.847Z,3.15
2022-07-26T12:59:42.940Z,3.00
2022-07-26T13:00:48.727Z,2.75
2022-07-26T13:01:53.215Z,3.20
2022-07-26T13:02:57.997Z,2.88
2022-07-26T13:04:02.244Z,3.05
2022-07-26T13:05:07.390Z,3.55
2022-07-26T13:06:11.339Z,4.00
2022-07-26T13:07:17.982Z,3.95
2022-07-26T13:08:21.878Z,3.72
2022-07-26T13:09:26.406Z,4.15
2022-07-26T13:10:35.023Z,4.05
2022-07-26T13:11:39.725Z,3.13
2022-07-26T13:12:43.644Z,3.88
2022-07-26T13:13:47.543Z,4.10
2022-07-26T13:14:51.641Z,3.83
2022-07-26T13:15:55.530Z,3.03
2022-07-26T13:16:59.721Z,2.97
2022-07-26T13:18:03.569Z,3.28
2022-07-26T13:19:07.535Z,2.85
2022-07-26T13:20:11.438Z,3.53
2022-07-26T13:21:15.356Z,2.80
2022-07-26T13:22:19.514Z,2.63
2022-07-26T13:23:27.278Z,3.00
2022-07-26T13:24:33.183Z,2.30
2022-07-26T13:25:39.585Z,2.13
2022-07-26T13:26:44.367Z,2.55
2022-07-26T13:27:49.277Z,2.80
2022-07-26T13:28:53.160Z,2.90
2022-07-26T13:29:56.950Z,2.45
2022-07-26T13:31:01.769Z,2.13
2022-07-26T13:32:06.937Z,1.92
2022-07-26T13:33:11.741Z,2.10
2022-07-26T13:34:15.747Z,1.98
2022-07-26T13:35:19.706Z,2.15
2022-07-26T13:36:23.548Z,1.85
2022-07-26T13:37:27.749Z,2.00
2022-07-26T13:38:33.746Z,1.95
2022-07-26T13:39:37.606Z,1.70
2022-07-26T13:40:41.459Z,1.80
2022-07-26T13:41:45.565Z,1.80
2022-07-26T13:42:53.738Z,1.60
2022-07-26T13:43:58.576Z,1.88
2022-07-26T13:45:02.509Z,1.90
2022-07-26T13:46:06.798Z,2.00
2022-07-26T13:47:10.608Z,1.42
2022-07-26T13:48:14.506Z,2.00
2022-07-26T13:49:18.363Z,1.90
2022-07-26T13:50:22.313Z,1.63
2022-07-26T13:51:49.233Z,1.50
2022-07-26T13:52:55.548Z,1.77
2022-07-26T13:53:59.204Z,1.50
2022-07-26T13:55:02.922Z,1.52
2022-07-26T13:56:07.771Z,1.40
2022-07-26T13:57:11.429Z,1.88
2022-07-26T13:58:15.183Z,2.20
2022-07-26T13:59:19.806Z,1.60
2022-07-26T14:00:23.706Z,2.00
2022-07-26T14:01:43.348Z,1.52
2022-07-26T14:02:47.785Z,1.48
2022-07-26T14:03:51.589Z,1.70
2022-07-26T14:04:55.371Z,1.83
2022-07-26T14:05:59.125Z,1.50
2022-07-26T14:07:02.922Z,1.77
2022-07-26T14:08:07.045Z,1.40
2022-07-26T14:09:11.844Z,1.40
2022-07-26T14:10:15.835Z,1.83
2022-07-26T14:11:19.855Z,1.77
2022-07-26T14:12:23.871Z,1.60
2022-07-26T14:13:27.742Z,1.60
2022-07-26T14:14:31.554Z,1.88
2022-07-26T14:15:36.305Z,1.90
2022-07-26T14:16:40.524Z,1.52
2022-07-26T14:17:47.505Z,1.75
2022-07-26T14:18:55.148Z,1.63
2022-07-26T14:19:58.881Z,1.80
2022-07-26T14:21:08.683Z,2.08
2022-07-26T14:22:14.197Z,2.00
2022-07-26T14:23:18.519Z,2.30
2022-07-26T14:24:22.369Z,1.42
2022-07-26T14:25:28.205Z,1.67
2022-07-26T14:26:32.145Z,2.03
2022-07-26T14:27:36.348Z,1.70
2022-07-26T14:28:40.272Z,1.42
2022-07-26T14:29:46.327Z,1.67
2022-07-26T14:30:50.259Z,1.38
2022-07-26T14:31:54.549Z,1.88
2022-07-26T14:32:58.402Z,1.90
2022-07-26T14:34:02.227Z,1.70
2022-07-26T14:35:07.198Z,1.23
2022-07-26T14:36:13.395Z,1.60
2022-07-26T14:37:42.566Z,1.60
2022-07-26T14:38:43.707Z,1.65
2022-07-26T14:39:47.419Z,1.50
2022-07-26T14:40:51.383Z,2.15
2022-07-26T14:41:55.291Z,1.50
2022-07-26T14:42:59.655Z,1.88
2022-07-26T14:44:04.830Z,1.73
2022-07-26T14:45:10.274Z,1.50
2022-07-26T14:46:14.219Z,2.08
2022-07-26T14:47:17.987Z,2.10
2022-07-26T14:48:44.244Z,2.28
2022-07-26T14:49:45.545Z,1.80
2022-07-26T14:51:08.659Z,1.95
2022-07-26T14:52:13.690Z,2.15
2022-07-26T14:53:18.311Z,2.00